createdAt,value
2019-04-05T00:02:00.306Z,6.60
2019-04-05T00:04:28.081Z,6.50
2019-04-05T00:06:55.790Z,6.50
2019-04-05T00:09:23.575Z,6.90
2019-04-05T00:11:51.389Z,6.50
2019-04-05T00:14:19.186Z,6.60
2019-04-05T00:16:46.992Z,6.60
2019-04-05T00:19:14.743Z,6.60
2019-04-05T00:21:42.518Z,6.60
2019-04-05T00:24:10.322Z,6.70
2019-04-05T00:26:38.121Z,6.60
2019-04-05T00:29:05.900Z,6.70
2019-04-05T00:31:48.767Z,6.70
2019-04-05T00:34:16.548Z,6.60
2019-04-05T00:36:44.304Z,6.60
2019-04-05T00:39:12.113Z,6.50
2019-04-05T00:41:39.949Z,6.60
2019-04-05T00:44:07.751Z,6.60
2019-04-05T00:46:35.587Z,6.60
2019-04-05T00:49:03.325Z,6.70
2019-04-05T00:51:50.571Z,6.60
2019-04-05T00:54:18.375Z,6.80
2019-04-05T00:56:46.163Z,6.60
2019-04-05T00:59:13.934Z,6.60
2019-04-05T01:01:41.735Z,6.60
2019-04-05T01:04:09.496Z,6.60
2019-04-05T01:06:37.490Z,7.10
2019-04-05T01:09:06.888Z,6.50
2019-04-05T01:11:34.755Z,6.60
2019-04-05T01:14:02.540Z,6.60
2019-04-05T01:16:30.281Z,6.60
2019-04-05T01:18:58.069Z,6.60
2019-04-05T01:21:31.338Z,6.70
2019-04-05T01:24:01.867Z,6.60
2019-04-05T01:26:30.776Z,6.60
2019-04-05T01:28:58.589Z,6.60
2019-04-05T01:31:26.430Z,6.90
2019-04-05T01:33:54.217Z,6.60
2019-04-05T01:36:21.988Z,6.70
2019-04-05T01:38:49.759Z,6.50
2019-04-05T01:41:17.763Z,6.80
2019-04-05T01:43:45.547Z,6.50
2019-04-05T01:46:13.360Z,6.90
2019-04-05T01:48:41.137Z,6.60
2019-04-05T01:51:09.060Z,7.20
2019-04-05T01:53:36.951Z,6.70
2019-04-05T01:56:04.802Z,6.70
2019-04-05T01:58:32.593Z,6.80
2019-04-05T02:01:00.416Z,6.70
2019-04-05T02:03:28.215Z,6.70
2019-04-05T02:05:56.015Z,6.70
2019-04-05T02:08:23.758Z,6.60
2019-04-05T02:11:22.077Z,6.60
2019-04-05T02:13:49.814Z,6.70
2019-04-05T02:16:17.595Z,6.70
2019-04-05T02:18:45.383Z,6.70
2019-04-05T02:21:13.344Z,6.70
2019-04-05T02:23:42.170Z,6.70
2019-04-05T02:26:09.984Z,6.60
2019-04-05T02:28:37.743Z,6.60
2019-04-05T02:31:05.592Z,6.70
2019-04-05T02:33:36.585Z,6.70
2019-04-05T02:36:04.478Z,6.80
2019-04-05T02:38:32.177Z,6.80
2019-04-05T02:41:00.968Z,6.80
2019-04-05T02:43:31.487Z,6.70
2019-04-05T02:46:00.610Z,6.80
2019-04-05T02:48:32.841Z,6.80
2019-04-05T02:51:03.440Z,6.70
2019-04-05T02:53:33.644Z,6.70
2019-04-05T02:56:03.186Z,6.70
2019-04-05T02:58:32.950Z,6.60
2019-04-05T03:01:01.745Z,6.70
2019-04-05T03:03:29.604Z,6.70
2019-04-05T03:05:57.383Z,6.70
2019-04-05T03:08:25.327Z,6.80
2019-04-05T03:11:14.160Z,6.70
2019-04-05T03:13:53.552Z,6.70
2019-04-05T03:16:39.548Z,7.20
2019-04-05T03:19:11.856Z,6.80
2019-04-05T03:21:44.772Z,6.80
2019-04-05T03:24:19.366Z,6.80
2019-04-05T03:26:58.164Z,6.80
2019-04-05T03:29:26.897Z,6.80
2019-04-05T03:31:54.812Z,7.60
2019-04-05T03:34:22.592Z,6.90
2019-04-05T03:36:52.088Z,6.80
2019-04-05T03:39:22.156Z,6.80
2019-04-05T03:41:49.946Z,6.80
2019-04-05T03:44:17.740Z,6.80
2019-04-05T03:46:56.335Z,6.80
2019-04-05T03:49:15.198Z,6.70
2019-04-05T03:51:43.934Z,6.90
2019-04-05T03:54:12.148Z,6.70
2019-04-05T03:56:40.094Z,6.70
2019-04-05T03:59:08.094Z,6.70
2019-04-05T04:01:35.902Z,6.70
2019-04-05T04:04:03.963Z,6.80
2019-04-05T04:06:32.116Z,6.70
2019-04-05T04:08:59.990Z,6.70
2019-04-05T04:11:27.750Z,6.70
2019-04-05T04:13:55.646Z,6.70
2019-04-05T04:16:23.483Z,6.70
2019-04-05T04:18:51.399Z,6.60
2019-04-05T04:21:38.247Z,6.70
2019-04-05T04:24:07.821Z,6.70
2019-04-05T04:26:35.552Z,6.60
2019-04-05T04:29:03.326Z,6.50
2019-04-05T04:31:31.224Z,6.60
2019-04-05T04:34:01.930Z,6.70
2019-04-05T04:36:29.765Z,6.70
2019-04-05T04:38:57.441Z,7.10
2019-04-05T04:41:35.485Z,6.60
2019-04-05T04:44:03.431Z,6.60
2019-04-05T04:46:32.410Z,6.60
2019-04-05T04:49:00.792Z,6.60
2019-04-05T04:51:34.291Z,6.60
2019-04-05T04:54:02.735Z,6.70
2019-04-05T04:56:30.615Z,6.70
2019-04-05T04:59:00.126Z,6.70
2019-04-05T05:01:28.146Z,6.80
2019-04-05T05:03:58.123Z,6.80
2019-04-05T05:06:25.903Z,6.70
2019-04-05T05:08:53.798Z,6.80
2019-04-05T05:11:27.101Z,6.80
2019-04-05T05:13:55.378Z,6.80
2019-04-05T05:16:23.115Z,6.80
2019-04-05T05:18:51.206Z,6.80
2019-04-05T05:21:34.244Z,6.80
2019-04-05T05:24:21.691Z,6.80
2019-04-05T05:26:52.819Z,7.50
2019-04-05T05:29:23.787Z,7.50
2019-04-05T05:31:54.305Z,6.90
2019-04-05T05:34:22.152Z,7.50
2019-04-05T05:36:50.075Z,6.90
2019-04-05T05:39:18.337Z,6.90
2019-04-05T05:41:46.175Z,7.00
2019-04-05T05:44:13.949Z,7.00
2019-04-05T05:46:41.802Z,7.00
2019-04-05T05:49:09.573Z,7.00
2019-04-05T05:51:37.699Z,7.00
2019-04-05T05:54:05.518Z,7.00
2019-04-05T05:56:33.294Z,7.10
2019-04-05T05:59:01.079Z,7.00
2019-04-05T06:01:33.961Z,7.10
2019-04-05T06:04:02.845Z,7.10
2019-04-05T06:06:30.694Z,7.20
2019-04-05T06:08:58.473Z,7.20
2019-04-05T06:11:26.468Z,7.20
2019-04-05T06:13:54.262Z,7.20
2019-04-05T06:16:22.044Z,7.80
2019-04-05T06:18:49.787Z,7.30
2019-04-05T06:21:17.799Z,7.30
2019-04-05T06:23:45.593Z,7.50
2019-04-05T06:26:13.434Z,7.50
2019-04-05T06:28:41.376Z,7.60
2019-04-05T06:31:28.945Z,7.70
2019-04-05T06:33:56.691Z,7.80
2019-04-05T06:36:24.486Z,7.90
2019-04-05T06:38:52.240Z,7.90
2019-04-05T06:41:19.990Z,7.90
2019-04-05T06:43:47.868Z,7.90
2019-04-05T06:46:15.681Z,7.90
2019-04-05T06:48:43.546Z,7.70
2019-04-05T06:51:11.307Z,7.70
2019-04-05T06:53:39.328Z,7.70
2019-04-05T06:56:07.143Z,7.80
2019-04-05T06:58:34.955Z,7.90
2019-04-05T07:01:02.949Z,8.00
2019-04-05T07:03:30.738Z,8.00
2019-04-05T07:05:58.559Z,8.00
2019-04-05T07:08:26.355Z,8.00
2019-04-05T07:10:54.261Z,8.10
2019-04-05T07:13:22.124Z,8.10
2019-04-05T07:15:50.199Z,8.20
2019-04-05T07:18:31.550Z,8.20
2019-04-05T07:20:47.789Z,8.20
2019-04-05T07:23:15.553Z,8.30
2019-04-05T07:25:43.386Z,8.50
2019-04-05T07:28:11.108Z,8.40
2019-04-05T07:30:44.136Z,8.90
2019-04-05T07:33:12.386Z,8.70
2019-04-05T07:35:40.176Z,8.90
2019-04-05T07:38:09.774Z,9.10
2019-04-05T07:40:37.649Z,9.30
2019-04-05T07:43:05.425Z,9.30
2019-04-05T07:45:33.177Z,9.50
2019-04-05T07:48:01.002Z,9.60
2019-04-05T07:50:29.317Z,9.70
2019-04-05T07:52:57.107Z,9.70
2019-04-05T07:55:24.900Z,9.80
2019-04-05T07:57:52.642Z,9.60
2019-04-05T08:00:49.690Z,9.60
2019-04-05T08:03:17.569Z,9.80
2019-04-05T08:05:45.641Z,9.90
2019-04-05T08:09:02.157Z,10.00
2019-04-05T08:11:29.947Z,9.90
2019-04-05T08:14:00.245Z,9.80
2019-04-05T08:16:28.317Z,9.70
2019-04-05T08:18:58.398Z,9.70
2019-04-05T08:21:26.362Z,9.60
2019-04-05T08:23:54.152Z,9.60
2019-04-05T08:26:21.932Z,9.70
2019-04-05T08:28:49.710Z,9.60
2019-04-05T08:31:17.683Z,9.60
2019-04-05T08:33:45.410Z,9.60
2019-04-05T08:36:13.213Z,9.60
2019-04-05T08:38:41.033Z,9.60
2019-04-05T08:41:08.844Z,9.60
2019-04-05T08:43:36.570Z,9.60
2019-04-05T08:46:04.462Z,9.60
2019-04-05T08:48:33.025Z,9.60
2019-04-05T08:51:01.085Z,9.70
2019-04-05T08:53:28.872Z,9.70
2019-04-05T08:55:56.944Z,9.70
2019-04-05T08:58:33.294Z,9.70
2019-04-05T09:00:54.560Z,9.80
2019-04-05T09:03:22.278Z,9.70
2019-04-05T09:05:50.098Z,9.80
2019-04-05T09:08:17.884Z,9.90
2019-04-05T09:10:45.723Z,10.00
2019-04-05T09:13:13.498Z,10.00
2019-04-05T09:15:41.290Z,10.00
2019-04-05T09:18:09.064Z,10.10
2019-04-05T09:20:36.822Z,10.20
2019-04-05T09:23:04.579Z,10.20
2019-04-05T09:25:32.416Z,10.20
2019-04-05T09:28:00.177Z,10.20
2019-04-05T09:30:28.093Z,10.30
2019-04-05T09:32:55.869Z,10.20
2019-04-05T09:35:23.686Z,10.10
2019-04-05T09:37:51.425Z,10.10
2019-04-05T09:40:21.178Z,10.20
2019-04-05T09:42:48.921Z,10.10
2019-04-05T09:45:16.743Z,10.30
2019-04-05T09:47:44.530Z,10.30
2019-04-05T09:50:17.756Z,10.80
2019-04-05T09:52:45.592Z,10.40
2019-04-05T09:55:13.406Z,10.30
2019-04-05T09:57:41.186Z,10.30
2019-04-05T10:00:24.430Z,10.20
2019-04-05T10:02:52.189Z,10.20
2019-04-05T10:05:19.990Z,10.10
2019-04-05T10:07:54.950Z,10.10
2019-04-05T10:10:22.474Z,10.10
2019-04-05T10:12:50.233Z,10.00
2019-04-05T10:15:18.056Z,10.10
2019-04-05T10:17:45.772Z,10.20
2019-04-05T10:20:13.990Z,10.10
2019-04-05T10:22:42.833Z,10.30
2019-04-05T10:25:10.757Z,10.30
2019-04-05T10:27:38.522Z,10.40
2019-04-05T10:30:10.607Z,10.50
2019-04-05T10:32:38.468Z,10.60
2019-04-05T10:35:06.328Z,10.40
2019-04-05T10:37:34.903Z,10.40
2019-04-05T10:40:05.065Z,10.40
2019-04-05T10:42:34.903Z,10.40
2019-04-05T10:45:04.305Z,10.60
2019-04-05T10:47:32.158Z,10.70
2019-04-05T10:50:03.226Z,10.70
2019-04-05T10:52:29.857Z,10.70
2019-04-05T10:54:58.013Z,10.70
2019-04-05T10:57:26.117Z,10.70
2019-04-05T10:59:59.055Z,10.60
2019-04-05T11:02:26.856Z,10.40
2019-04-05T11:04:54.646Z,10.50
2019-04-05T11:07:22.419Z,10.40
2019-04-05T11:09:53.221Z,10.60
2019-04-05T11:12:20.805Z,10.50
2019-04-05T11:14:48.621Z,10.50
2019-04-05T11:17:16.398Z,10.60
2019-04-05T11:19:44.632Z,10.60
2019-04-05T11:22:12.535Z,10.60
2019-04-05T11:24:40.385Z,10.60
2019-04-05T11:27:08.202Z,10.80
2019-04-05T11:29:35.950Z,10.80
2019-04-05T11:32:03.845Z,11.10
2019-04-05T11:34:31.627Z,10.90
2019-04-05T11:37:02.658Z,11.00
2019-04-05T11:39:29.816Z,10.90
2019-04-05T11:41:58.328Z,11.00
2019-04-05T11:44:28.398Z,11.00
2019-04-05T11:46:56.312Z,11.10
2019-04-05T11:49:25.046Z,11.10
2019-04-05T11:51:53.700Z,11.20
2019-04-05T11:54:21.517Z,11.30
2019-04-05T11:56:49.294Z,11.10
2019-04-05T11:59:17.263Z,11.20
2019-04-05T12:01:53.899Z,11.50
2019-04-05T12:04:21.656Z,11.60
2019-04-05T12:06:51.848Z,11.70
2019-04-05T12:09:19.863Z,11.80
2019-04-05T12:11:47.881Z,11.90
2019-04-05T12:14:15.699Z,12.00
2019-04-05T12:16:43.594Z,11.80
2019-04-05T12:19:11.415Z,11.80
2019-04-05T12:21:39.318Z,11.60
2019-04-05T12:24:07.095Z,11.90
2019-04-05T12:26:35.226Z,11.90
2019-04-05T12:29:03.269Z,11.90
2019-04-05T12:31:31.118Z,11.70
2019-04-05T12:34:00.132Z,11.60
2019-04-05T12:36:28.342Z,11.70
2019-04-05T12:38:56.815Z,11.80
2019-04-05T12:41:24.915Z,11.90
2019-04-05T12:43:52.773Z,12.10
2019-04-05T12:46:20.617Z,12.10
2019-04-05T12:48:48.467Z,12.20
2019-04-05T12:51:32.099Z,12.20
2019-04-05T12:54:00.678Z,12.20
2019-04-05T12:56:28.508Z,11.90
2019-04-05T12:58:56.714Z,12.40
2019-04-05T13:01:25.105Z,11.90
2019-04-05T13:03:52.914Z,12.00
2019-04-05T13:06:21.737Z,12.10
2019-04-05T13:08:51.562Z,12.20
2019-04-05T13:11:34.739Z,12.10
2019-04-05T13:14:02.655Z,12.10
2019-04-05T13:16:30.440Z,12.20
2019-04-05T13:19:00.573Z,12.20
2019-04-05T13:21:32.095Z,12.30
2019-04-05T13:23:58.037Z,12.20
2019-04-05T13:26:26.455Z,12.10
2019-04-05T13:28:54.476Z,11.90
2019-04-05T13:31:27.278Z,11.90
2019-04-05T13:33:55.610Z,11.90
2019-04-05T13:36:23.712Z,11.80
2019-04-05T13:38:55.098Z,11.70
2019-04-05T13:41:37.158Z,11.70
2019-04-05T13:44:04.956Z,11.70
2019-04-05T13:46:32.775Z,11.70
2019-04-05T13:49:00.643Z,11.50
2019-04-05T13:51:31.707Z,11.70
2019-04-05T13:53:58.093Z,11.70
2019-04-05T13:56:25.999Z,11.70
2019-04-05T13:58:53.748Z,11.70
2019-04-05T14:01:21.516Z,11.70
2019-04-05T14:03:50.276Z,11.70
2019-04-05T14:06:19.008Z,11.80
2019-04-05T14:08:46.852Z,11.70
2019-04-05T14:11:14.697Z,11.70
2019-04-05T14:13:43.043Z,11.70
2019-04-05T14:16:12.508Z,11.60
2019-04-05T14:18:45.749Z,11.60
2019-04-05T14:21:10.614Z,11.50
2019-04-05T14:23:38.415Z,11.50
2019-04-05T14:26:06.223Z,11.40
2019-04-05T14:28:34.838Z,11.40
2019-04-05T14:31:03.631Z,11.50
2019-04-05T14:33:32.118Z,11.60
2019-04-05T14:35:59.974Z,11.70
2019-04-05T14:38:33.940Z,11.80
2019-04-05T14:41:02.110Z,11.80
2019-04-05T14:43:37.790Z,11.80
2019-04-05T14:46:11.859Z,11.70
2019-04-05T14:48:39.973Z,11.70
2019-04-05T14:51:14.269Z,11.70
2019-04-05T14:53:42.166Z,11.10
2019-04-05T14:56:10.043Z,11.80
2019-04-05T14:58:37.909Z,11.80
2019-04-05T15:01:17.581Z,11.70
2019-04-05T15:03:45.961Z,11.70
2019-04-05T15:06:14.169Z,11.70
2019-04-05T15:08:41.976Z,11.60
2019-04-05T15:11:11.198Z,11.60
2019-04-05T15:13:39.306Z,11.60
2019-04-05T15:16:07.137Z,11.50
2019-04-05T15:18:34.960Z,11.40
2019-04-05T15:21:05.475Z,11.40
2019-04-05T15:23:33.019Z,11.40
2019-04-05T15:26:01.525Z,10.90
2019-04-05T15:28:29.375Z,11.40
2019-04-05T15:30:57.396Z,11.30
2019-04-05T15:33:27.450Z,11.30
2019-04-05T15:35:58.039Z,11.30
2019-04-05T15:38:24.905Z,11.20
2019-04-05T15:40:58.073Z,11.30
2019-04-05T15:43:25.915Z,10.80
2019-04-05T15:45:54.041Z,11.30
2019-04-05T15:48:22.807Z,11.40
2019-04-05T15:50:51.949Z,11.30
2019-04-05T15:53:21.128Z,11.40
2019-04-05T15:55:48.943Z,11.30
2019-04-05T15:58:16.712Z,11.30
2019-04-05T16:00:44.789Z,11.20
2019-04-05T16:03:13.825Z,11.30
2019-04-05T16:05:43.037Z,11.30
2019-04-05T16:08:11.169Z,11.30
2019-04-05T16:10:39.052Z,11.20
2019-04-05T16:13:08.264Z,11.30
2019-04-05T16:15:36.225Z,11.30
2019-04-05T16:18:03.994Z,11.40
2019-04-05T16:20:32.081Z,11.30
2019-04-05T16:22:59.841Z,11.30
2019-04-05T16:25:27.932Z,11.30
2019-04-05T16:27:55.716Z,11.30
2019-04-05T16:30:25.854Z,11.40
2019-04-05T16:32:53.874Z,11.30
2019-04-05T16:35:29.232Z,11.30
2019-04-05T16:37:57.455Z,11.40
2019-04-05T16:40:52.272Z,11.30
2019-04-05T16:43:22.895Z,11.30
2019-04-05T16:45:52.090Z,11.30
2019-04-05T16:48:24.797Z,11.30
2019-04-05T16:50:53.440Z,11.30
2019-04-05T16:53:21.223Z,11.30
2019-04-05T16:55:49.044Z,11.30
2019-04-05T16:58:16.847Z,11.20
2019-04-05T17:00:45.734Z,11.20
2019-04-05T17:03:13.612Z,11.50
2019-04-05T17:05:41.411Z,11.10
2019-04-05T17:08:09.283Z,10.30
2019-04-05T17:10:42.261Z,10.90
2019-04-05T17:13:10.157Z,10.90
2019-04-05T17:15:37.945Z,10.80
2019-04-05T17:18:05.967Z,10.80
2019-04-05T17:20:34.004Z,10.70
2019-04-05T17:23:01.834Z,10.60
2019-04-05T17:25:29.672Z,10.50
2019-04-05T17:27:57.631Z,10.50
2019-04-05T17:30:25.493Z,10.40
2019-04-05T17:32:53.263Z,10.40
2019-04-05T17:35:21.082Z,10.30
2019-04-05T17:37:48.926Z,10.20
2019-04-05T17:40:16.741Z,10.10
2019-04-05T17:42:44.723Z,9.80
2019-04-05T17:45:15.458Z,9.70
2019-04-05T17:47:44.720Z,9.70
2019-04-05T17:50:32.880Z,9.60
2019-04-05T17:53:11.250Z,9.40
2019-04-05T17:55:30.961Z,9.30
2019-04-05T17:57:59.430Z,9.20
2019-04-05T18:00:27.335Z,9.20
2019-04-05T18:02:55.107Z,9.10
2019-04-05T18:05:23.072Z,9.10
2019-04-05T18:07:50.880Z,9.10
2019-04-05T18:10:18.774Z,9.00
2019-04-05T18:12:46.728Z,8.90
2019-04-05T18:15:14.715Z,8.90
2019-04-05T18:17:42.569Z,8.80
2019-04-05T18:20:10.754Z,8.80
2019-04-05T18:22:38.558Z,8.70
2019-04-05T18:25:06.734Z,8.70
2019-04-05T18:27:34.655Z,9.10
2019-04-05T18:30:02.892Z,8.70
2019-04-05T18:32:31.385Z,8.70
2019-04-05T18:34:59.774Z,8.80
2019-04-05T18:37:27.615Z,8.80
2019-04-05T18:39:55.527Z,8.90
2019-04-05T18:42:23.435Z,8.90
2019-04-05T18:44:51.636Z,8.90
2019-04-05T18:47:19.598Z,9.00
2019-04-05T18:50:03.150Z,9.00
2019-04-05T18:52:27.467Z,9.10
2019-04-05T18:54:55.817Z,9.10
2019-04-05T18:57:24.224Z,9.10
2019-04-05T18:59:52.430Z,9.10
2019-04-05T19:02:20.836Z,9.10
2019-04-05T19:04:49.257Z,9.10
2019-04-05T19:07:17.690Z,9.10
2019-04-05T19:09:46.286Z,9.10
2019-04-05T19:12:14.396Z,9.00
2019-04-05T19:14:42.305Z,9.00
2019-04-05T19:17:22.803Z,9.10
2019-04-05T19:19:40.139Z,9.20
2019-04-05T19:22:08.100Z,9.10
2019-04-05T19:24:35.858Z,9.10
2019-04-05T19:27:04.013Z,9.10
2019-04-05T19:29:31.881Z,9.10
2019-04-05T19:49:28.332Z,8.80
2019-04-05T19:51:56.220Z,8.80
2019-04-05T19:54:26.356Z,8.90
2019-04-05T19:56:53.935Z,8.90
2019-04-05T19:59:21.727Z,8.80
2019-04-05T20:01:49.618Z,8.70
2019-04-05T20:04:17.426Z,8.70
2019-04-05T20:06:45.283Z,8.70
2019-04-05T20:09:13.262Z,8.70
2019-04-05T20:11:41.647Z,8.60
2019-04-05T20:14:09.507Z,8.80
2019-04-05T20:16:37.407Z,8.70
2019-04-05T20:19:05.297Z,9.10
2019-04-05T20:21:33.277Z,8.80
2019-04-05T20:24:09.389Z,8.90
2019-04-05T20:26:30.882Z,8.80
2019-04-05T20:28:58.789Z,8.50
2019-04-05T20:31:26.588Z,8.90
2019-04-05T20:33:54.462Z,8.90
2019-04-05T20:36:22.392Z,8.80
2019-04-05T20:38:50.337Z,8.70
2019-04-05T20:41:23.282Z,8.70
2019-04-05T20:43:51.281Z,8.20
2019-04-05T20:46:19.276Z,8.70
2019-04-05T20:48:47.179Z,8.70
2019-04-05T20:51:20.010Z,8.60
2019-04-05T20:53:47.815Z,8.60
2019-04-05T20:56:15.662Z,8.70
2019-04-05T20:58:43.445Z,8.80
2019-04-05T21:01:16.320Z,8.90
2019-04-05T21:03:44.166Z,9.00
2019-04-05T21:06:11.966Z,9.00
2019-04-05T21:08:39.693Z,9.00
2019-04-05T21:11:07.610Z,9.10
2019-04-05T21:13:35.479Z,9.10
2019-04-05T21:16:03.243Z,9.00
2019-04-05T21:18:31.039Z,9.00
2019-04-05T21:20:58.891Z,9.00
2019-04-05T21:23:26.695Z,9.00
2019-04-05T21:25:54.806Z,9.00
2019-04-05T21:28:22.590Z,8.90
2019-04-05T21:30:50.379Z,8.90
2019-04-05T21:33:18.155Z,8.90
2019-04-05T21:35:46.283Z,9.00
2019-04-05T21:38:14.340Z,8.90
2019-04-05T21:40:42.163Z,8.80
2019-04-05T21:43:10.231Z,8.80
2019-04-05T21:45:38.084Z,8.90
2019-04-05T21:48:05.933Z,8.90
2019-04-05T21:50:34.551Z,8.90
2019-04-05T21:53:02.334Z,9.00
2019-04-05T21:55:30.154Z,9.00
2019-04-05T21:57:58.464Z,9.00
2019-04-05T22:00:32.984Z,9.00
2019-04-05T22:03:00.811Z,9.10
2019-04-05T22:05:28.632Z,9.10
2019-04-05T22:07:56.461Z,9.10
2019-04-05T22:10:24.190Z,9.10
2019-04-05T22:12:52.212Z,9.10
2019-04-05T22:15:20.020Z,9.10
2019-04-05T22:17:47.854Z,9.10
2019-04-05T22:20:15.904Z,9.00
2019-04-05T22:22:43.673Z,9.00
2019-04-05T22:25:11.442Z,9.10
2019-04-05T22:27:39.205Z,9.00
2019-04-05T22:30:11.406Z,9.00
2019-04-05T22:32:39.202Z,9.10
2019-04-05T22:35:07.166Z,9.20
2019-04-05T22:37:34.956Z,9.30
2019-04-05T22:40:33.560Z,9.30
2019-04-05T22:43:01.909Z,9.30
2019-04-05T22:45:29.745Z,9.30
2019-04-05T22:47:57.486Z,9.30
2019-04-05T22:50:28.435Z,9.30
2019-04-05T22:52:56.151Z,9.20
2019-04-05T22:55:23.926Z,9.30
2019-04-05T22:57:51.985Z,9.20
2019-04-05T23:00:20.079Z,9.10
2019-04-05T23:02:47.916Z,9.20
2019-04-05T23:05:15.668Z,9.20
2019-04-05T23:07:43.489Z,9.20
2019-04-05T23:10:11.876Z,9.20
2019-04-05T23:12:39.800Z,8.90
2019-04-05T23:15:08.202Z,9.30
2019-04-05T23:17:35.931Z,9.30
2019-04-05T23:20:04.081Z,9.30
2019-04-05T23:22:31.899Z,8.80
2019-04-05T23:24:59.687Z,9.30
2019-04-05T23:27:27.467Z,9.40
2019-04-05T23:29:55.617Z,9.30
2019-04-05T23:32:23.459Z,9.30
2019-04-05T23:34:51.227Z,9.30
2019-04-05T23:37:19.011Z,9.30
2019-04-05T23:39:46.802Z,9.30
2019-04-05T23:42:14.875Z,9.40
2019-04-05T23:44:42.645Z,9.50
2019-04-05T23:47:10.426Z,9.40
2019-04-05T23:49:38.368Z,9.30
2019-04-05T23:52:06.120Z,9.30
2019-04-05T23:54:33.909Z,9.30
2019-04-05T23:57:01.686Z,9.20
2019-04-05T23:59:29.447Z,9.30
